Time;durP1;ratioP1;P1;durP2;ratioP2;P2;SDS_P1;SDS_P2;PMS_P1;PMS_P2;Temp;Humidity;BMP_temperature;BMP_pressure;BME280_temperature;BME280_humidity;BME280_pressure;Samples;Min_cycle;Max_cycle;Signal;HPM_P1;HPM_P2
2021/09/12 00:00:16;;;;;;;37.90;25.65;;;16.90;99.90;;;;;;4998654;28;20045;-69
2021/09/12 00:02:42;;;;;;;41.13;28.50;;;16.80;99.90;;;;;;4998256;28;20042;-69
2021/09/12 00:05:08;;;;;;;41.22;25.98;;;16.90;99.90;;;;;;5000857;28;20442;-69
2021/09/12 00:07:34;;;;;;;36.33;24.02;;;16.90;99.90;;;;;;5000057;28;21318;-69
2021/09/12 00:09:59;;;;;;;43.00;25.42;;;16.90;99.90;;;;;;4999909;28;20045;-69
2021/09/12 00:12:25;;;;;;;43.72;26.45;;;17.00;99.90;;;;;;4999392;28;20038;-69
2021/09/12 00:14:51;;;;;;;49.92;28.02;;;16.90;99.90;;;;;;5001704;28;20077;-69
2021/09/12 00:17:16;;;;;;;31.48;23.33;;;17.00;99.90;;;;;;4984300;28;20034;-69
2021/09/12 00:19:42;;;;;;;40.47;24.20;;;16.90;99.90;;;;;;5001612;28;20383;-69
2021/09/12 00:22:08;;;;;;;73.45;32.67;;;16.90;99.90;;;;;;4999812;28;20045;-69
2021/09/12 00:24:33;;;;;;;36.65;25.50;;;16.90;99.90;;;;;;5000683;28;20147;-69
2021/09/12 00:26:59;;;;;;;39.50;25.48;;;16.90;99.90;;;;;;5001281;28;20044;-69
2021/09/12 00:29:24;;;;;;;40.00;22.90;;;16.80;99.90;;;;;;5000975;28;20113;-69
2021/09/12 00:31:50;;;;;;;42.17;25.65;;;16.80;99.90;;;;;;4998364;28;20045;-69
2021/09/12 00:34:16;;;;;;;44.47;25.52;;;16.90;99.90;;;;;;4998560;28;20558;-69
2021/09/12 00:36:42;;;;;;;33.67;23.25;;;16.80;99.90;;;;;;5000356;28;20038;-69
2021/09/12 00:39:08;;;;;;;35.30;22.80;;;16.80;99.90;;;;;;5001867;28;20049;-69
2021/09/12 00:41:38;;;;;;;36.60;22.95;;;16.70;99.90;;;;;;4999466;28;20054;-69
2021/09/12 00:44:05;;;;;;;35.53;22.33;;;16.70;99.90;;;;;;5000578;28;20121;-69
2021/09/12 00:46:30;;;;;;;41.20;21.80;;;16.60;99.90;;;;;;5000296;28;20112;-69
2021/09/12 00:48:56;;;;;;;28.27;18.55;;;16.60;99.90;;;;;;4996291;28;20038;-69
2021/09/12 00:51:22;;;;;;;26.35;19.98;;;16.50;99.90;;;;;;4998274;28;20042;-69
2021/09/12 00:53:51;;;;;;;29.45;20.38;;;16.40;99.90;;;;;;5000478;28;20045;-69
2021/09/12 00:56:16;;;;;;;24.60;15.10;;;16.40;99.90;;;;;;4998079;28;20169;-69
2021/09/12 00:58:43;;;;;;;24.42;15.43;;;16.40;99.90;;;;;;4997580;28;20176;-69
2021/09/12 01:01:09;;;;;;;26.20;15.10;;;16.40;99.90;;;;;;5001046;28;20496;-69
2021/09/12 01:03:35;;;;;;;31.33;21.15;;;16.40;99.90;;;;;;4998582;28;20045;-69
2021/09/12 01:06:01;;;;;;;25.45;18.92;;;16.30;99.90;;;;;;4996560;28;20046;-69
2021/09/12 01:08:27;;;;;;;33.33;21.75;;;16.30;99.90;;;;;;5000563;28;20034;-69
2021/09/12 01:10:53;;;;;;;25.98;19.83;;;16.30;99.90;;;;;;5001496;28;20060;-69
2021/09/12 01:13:18;;;;;;;23.48;17.45;;;16.20;99.90;;;;;;5001393;28;20029;-69
2021/09/12 01:15:45;;;;;;;15.60;13.98;;;16.20;99.90;;;;;;4999630;28;20515;-69
2021/09/12 01:18:11;;;;;;;25.70;16.55;;;16.20;99.90;;;;;;5002359;28;20061;-69
2021/09/12 01:20:37;;;;;;;22.48;18.05;;;16.20;99.90;;;;;;4998446;28;20037;-69
2021/09/12 01:23:06;;;;;;;27.77;18.40;;;16.10;99.90;;;;;;5000245;28;20924;-69
2021/09/12 01:25:33;;;;;;;25.80;15.65;;;16.20;99.90;;;;;;4998396;28;20070;-69
2021/09/12 01:27:58;;;;;;;19.80;13.75;;;16.20;99.90;;;;;;5000801;28;20046;-69
2021/09/12 01:30:24;;;;;;;36.60;23.35;;;16.10;99.90;;;;;;4999650;28;20506;-69
2021/09/12 01:32:49;;;;;;;36.95;23.58;;;16.20;99.90;;;;;;4997763;28;20042;-69
2021/09/12 01:35:15;;;;;;;44.33;25.83;;;16.20;99.90;;;;;;4998351;28;20089;-69
2021/09/12 01:37:40;;;;;;;40.20;26.92;;;16.30;99.90;;;;;;4998682;28;20042;-69
2021/09/12 01:40:07;;;;;;;42.28;26.45;;;16.30;99.90;;;;;;4997890;28;20037;-69
2021/09/12 01:42:32;;;;;;;39.45;24.70;;;16.40;99.90;;;;;;4995299;28;20054;-69
2021/09/12 01:44:58;;;;;;;45.80;27.83;;;16.50;99.90;;;;;;4997585;28;20073;-69
2021/09/12 01:47:23;;;;;;;49.80;27.38;;;16.40;99.90;;;;;;4999491;28;20046;-69
2021/09/12 01:49:49;;;;;;;46.40;26.08;;;16.50;99.90;;;;;;4997719;28;20038;-69
2021/09/12 01:52:15;;;;;;;36.88;24.30;;;16.50;99.90;;;;;;5000329;28;20065;-69
2021/09/12 01:54:41;;;;;;;33.15;19.77;;;16.60;99.90;;;;;;4999629;28;20077;-69
2021/09/12 01:57:07;;;;;;;38.30;21.08;;;16.50;99.90;;;;;;4996195;28;20124;-69
2021/09/12 01:59:33;;;;;;;31.55;19.55;;;16.40;99.90;;;;;;4997187;28;20123;-69
2021/09/12 02:01:59;;;;;;;36.25;21.02;;;16.40;99.90;;;;;;4999009;28;20045;-69
2021/09/12 02:04:25;;;;;;;29.60;19.38;;;16.40;99.90;;;;;;5000585;28;20444;-69
2021/09/12 02:06:50;;;;;;;26.92;20.05;;;16.40;99.90;;;;;;4998702;28;22232;-69
2021/09/12 02:09:16;;;;;;;28.40;21.58;;;16.40;99.90;;;;;;4997973;28;20042;-69
2021/09/12 02:11:42;;;;;;;29.45;20.23;;;16.30;99.90;;;;;;5000281;28;20042;-69
2021/09/12 02:14:07;;;;;;;30.92;20.45;;;16.30;99.90;;;;;;4999588;28;20541;-69
2021/09/12 02:16:33;;;;;;;40.33;20.05;;;16.30;99.90;;;;;;4997178;28;20088;-69
2021/09/12 02:18:59;;;;;;;27.20;19.05;;;16.30;99.90;;;;;;4998239;28;20563;-69
2021/09/12 02:21:24;;;;;;;31.05;20.15;;;16.40;99.90;;;;;;5000040;28;20480;-69
2021/09/12 02:23:50;;;;;;;36.42;20.00;;;16.30;99.90;;;;;;5000079;28;20044;-69
2021/09/12 02:26:15;;;;;;;30.65;17.75;;;16.40;99.90;;;;;;4996998;28;20053;-69
2021/09/12 02:28:41;;;;;;;26.60;17.75;;;16.40;99.90;;;;;;4995731;28;20041;-69
2021/09/12 02:31:07;;;;;;;35.33;19.45;;;16.40;99.90;;;;;;5000543;28;20041;-69
2021/09/12 02:33:32;;;;;;;29.33;16.55;;;16.40;99.90;;;;;;5001590;28;20045;-69
2021/09/12 02:35:58;;;;;;;24.05;16.23;;;16.40;99.90;;;;;;5004794;28;20128;-69
2021/09/12 02:38:23;;;;;;;30.15;17.25;;;16.30;99.90;;;;;;5001686;28;20096;-69
2021/09/12 02:40:49;;;;;;;28.33;17.08;;;16.40;99.90;;;;;;5001975;28;20056;-69
2021/09/12 02:43:15;;;;;;;30.15;17.42;;;16.30;99.90;;;;;;5001361;28;20046;-69
2021/09/12 02:45:41;;;;;;;27.55;16.45;;;16.30;99.90;;;;;;5003782;28;20050;-69
2021/09/12 02:48:06;;;;;;;29.80;15.82;;;16.40;99.90;;;;;;5004271;28;20029;-69
2021/09/12 02:50:32;;;;;;;27.20;17.73;;;16.30;99.90;;;;;;5001546;28;20096;-69
2021/09/12 02:52:57;;;;;;;29.65;18.02;;;16.30;99.90;;;;;;5005103;28;20500;-69
2021/09/12 02:55:23;;;;;;;24.65;16.50;;;16.30;99.90;;;;;;5003677;28;20568;-69
2021/09/12 02:57:49;;;;;;;27.98;16.73;;;16.30;99.90;;;;;;4988311;28;20041;-69
2021/09/12 03:00:15;;;;;;;22.98;17.25;;;16.30;99.90;;;;;;4999715;28;20475;-69
2021/09/12 03:02:40;;;;;;;30.75;17.15;;;16.40;99.90;;;;;;5001875;28;20045;-69
2021/09/12 03:05:07;;;;;;;35.53;17.98;;;16.40;99.90;;;;;;5000444;28;20037;-69
2021/09/12 03:07:32;;;;;;;29.95;17.77;;;16.30;99.90;;;;;;5003400;28;20402;-69
2021/09/12 03:09:58;;;;;;;31.30;17.35;;;16.40;99.90;;;;;;5001988;28;20038;-69
2021/09/12 03:12:24;;;;;;;30.88;18.23;;;16.40;99.90;;;;;;5005118;28;20033;-69
2021/09/12 03:14:49;;;;;;;28.58;17.02;;;16.30;99.90;;;;;;5001231;28;20053;-69
2021/09/12 03:17:15;;;;;;;38.65;18.50;;;16.30;99.90;;;;;;5000390;28;20042;-69
2021/09/12 03:19:41;;;;;;;33.35;17.77;;;16.30;99.90;;;;;;5002297;28;20049;-69
2021/09/12 03:22:07;;;;;;;32.05;17.33;;;16.30;99.90;;;;;;5002820;28;20395;-69
2021/09/12 03:24:33;;;;;;;23.67;16.02;;;16.30;99.90;;;;;;5002875;28;20045;-69
2021/09/12 03:26:59;;;;;;;27.85;15.77;;;16.30;99.90;;;;;;5003024;28;20450;-69
2021/09/12 03:29:24;;;;;;;30.73;15.63;;;16.30;99.90;;;;;;5003998;28;20527;-69
2021/09/12 03:31:50;;;;;;;24.85;16.63;;;16.30;99.90;;;;;;5000071;28;20791;-69
2021/09/12 03:34:15;;;;;;;24.35;14.70;;;16.30;99.90;;;;;;5004163;28;20080;-69
2021/09/12 03:36:41;;;;;;;32.60;15.68;;;16.20;99.90;;;;;;5002310;28;20141;-69
2021/09/12 03:39:07;;;;;;;25.88;15.00;;;16.20;99.90;;;;;;5000126;28;20126;-69
2021/09/12 03:41:32;;;;;;;27.45;15.27;;;16.20;99.90;;;;;;5000998;28;20145;-69
2021/09/12 03:43:58;;;;;;;23.65;14.40;;;16.20;99.90;;;;;;5007061;28;20041;-69
2021/09/12 03:46:23;;;;;;;25.70;14.88;;;16.10;99.90;;;;;;5007681;28;20045;-69
2021/09/12 03:48:49;;;;;;;21.08;12.95;;;16.10;99.90;;;;;;5004736;28;20500;-69
2021/09/12 03:51:15;;;;;;;26.42;14.15;;;16.00;99.90;;;;;;5006306;28;20033;-69
2021/09/12 03:53:40;;;;;;;22.85;13.30;;;16.00;99.90;;;;;;5008315;28;20103;-69
2021/09/12 03:56:06;;;;;;;26.23;14.38;;;16.00;99.90;;;;;;5008395;28;20065;-69
2021/09/12 03:58:31;;;;;;;24.00;12.57;;;16.00;99.90;;;;;;5005613;28;20577;-69
2021/09/12 04:00:57;;;;;;;28.48;14.00;;;16.00;99.90;;;;;;5009397;28;20045;-69
2021/09/12 04:03:23;;;;;;;24.75;13.20;;;15.90;99.90;;;;;;5005767;28;20054;-69
2021/09/12 04:05:48;;;;;;;25.38;13.20;;;15.90;99.90;;;;;;5007843;28;20038;-69
2021/09/12 04:08:14;;;;;;;21.48;12.70;;;15.90;99.90;;;;;;5004796;28;20042;-69
2021/09/12 04:10:40;;;;;;;23.42;13.70;;;15.90;99.90;;;;;;5007790;28;20033;-69
2021/09/12 04:13:05;;;;;;;25.63;12.98;;;15.90;99.90;;;;;;5005453;28;20042;-69
2021/09/12 04:15:31;;;;;;;22.05;13.05;;;15.90;99.90;;;;;;5006213;28;21520;-69
2021/09/12 04:17:57;;;;;;;21.25;12.13;;;15.90;99.90;;;;;;5005294;28;20041;-69
2021/09/12 04:20:23;;;;;;;27.02;13.23;;;15.90;99.90;;;;;;5006399;28;20095;-69
2021/09/12 04:22:48;;;;;;;23.13;12.52;;;15.90;99.90;;;;;;5006881;28;20057;-69
2021/09/12 04:25:14;;;;;;;25.15;12.25;;;15.90;99.90;;;;;;5006357;28;20081;-69
2021/09/12 04:27:39;;;;;;;22.80;12.60;;;15.90;99.90;;;;;;5007548;28;20037;-69
2021/09/12 04:30:08;;;;;;;24.58;12.52;;;15.90;99.90;;;;;;5006226;28;20133;-68
2021/09/12 04:32:33;;;;;;;22.20;11.93;;;16.00;99.90;;;;;;5004695;28;20052;-69
2021/09/12 04:34:59;;;;;;;27.42;13.15;;;16.00;99.90;;;;;;5008226;28;20029;-69
2021/09/12 04:37:25;;;;;;;16.58;11.30;;;16.00;99.90;;;;;;5006182;28;20121;-69
2021/09/12 04:39:50;;;;;;;22.50;11.10;;;16.00;99.90;;;;;;5002953;28;20042;-69
2021/09/12 04:42:16;;;;;;;21.55;13.20;;;16.00;99.90;;;;;;5003709;28;20045;-69
2021/09/12 04:44:42;;;;;;;26.33;12.45;;;16.00;99.90;;;;;;5002320;28;20054;-69
2021/09/12 04:47:07;;;;;;;27.45;12.40;;;16.00;99.90;;;;;;5003397;28;20131;-69
2021/09/12 04:49:33;;;;;;;25.23;11.43;;;16.00;99.90;;;;;;5004312;28;20034;-69
2021/09/12 04:51:59;;;;;;;22.92;12.10;;;16.00;99.90;;;;;;5003354;28;20038;-69
2021/09/12 04:54:24;;;;;;;23.15;11.48;;;16.00;99.90;;;;;;4999491;28;20069;-69
2021/09/12 04:56:50;;;;;;;21.02;11.82;;;16.10;99.90;;;;;;5003716;28;20096;-69
2021/09/12 04:59:15;;;;;;;23.30;11.50;;;16.00;99.90;;;;;;5003990;28;20042;-69
2021/09/12 05:01:41;;;;;;;20.73;11.82;;;16.10;99.90;;;;;;5004201;28;20133;-69
2021/09/12 05:04:07;;;;;;;29.48;12.55;;;16.10;99.90;;;;;;5002474;28;20499;-69
2021/09/12 05:06:32;;;;;;;24.70;12.02;;;16.10;99.90;;;;;;5003742;28;20069;-69
2021/09/12 05:08:58;;;;;;;23.83;12.55;;;16.10;99.90;;;;;;5006301;28;20038;-69
2021/09/12 05:11:23;;;;;;;22.90;12.20;;;16.10;99.90;;;;;;5002451;28;20038;-69
2021/09/12 05:13:49;;;;;;;24.15;11.55;;;16.10;99.90;;;;;;5002745;28;20082;-69
2021/09/12 05:16:15;;;;;;;23.35;11.65;;;16.10;99.90;;;;;;5004457;28;20448;-69
2021/09/12 05:18:40;;;;;;;24.25;12.65;;;16.10;99.90;;;;;;5004306;28;20092;-69
2021/09/12 05:21:06;;;;;;;25.77;12.88;;;16.10;99.90;;;;;;5002066;28;20081;-69
2021/09/12 05:23:32;;;;;;;22.35;11.95;;;16.20;99.90;;;;;;5004293;28;20045;-69
2021/09/12 05:25:57;;;;;;;23.77;13.13;;;16.20;99.90;;;;;;5002949;28;20468;-69
2021/09/12 05:28:23;;;;;;;21.63;11.48;;;16.20;99.90;;;;;;5002565;28;20033;-69
2021/09/12 05:30:49;;;;;;;23.90;11.38;;;16.20;99.90;;;;;;5006810;28;20037;-69
2021/09/12 05:33:14;;;;;;;22.00;12.40;;;16.20;99.90;;;;;;5003746;28;20050;-69
2021/09/12 05:35:40;;;;;;;22.65;12.15;;;16.30;99.90;;;;;;5002691;28;20097;-69
2021/09/12 05:38:07;;;;;;;22.52;11.80;;;16.20;99.90;;;;;;4999868;28;20073;-69
2021/09/12 05:40:33;;;;;;;23.42;11.52;;;16.30;99.90;;;;;;4999550;28;20046;-68
2021/09/12 05:43:07;;;;;;;23.92;10.95;;;16.30;99.90;;;;;;4999898;28;20045;-68
2021/09/12 05:45:33;;;;;;;18.40;10.73;;;16.30;99.90;;;;;;4999071;28;20050;-69
2021/09/12 05:47:59;;;;;;;26.85;11.57;;;16.30;99.90;;;;;;4997961;28;20042;-69
2021/09/12 05:50:24;;;;;;;18.80;11.35;;;16.30;99.90;;;;;;4998867;28;20053;-69
2021/09/12 05:52:50;;;;;;;21.25;11.80;;;16.30;99.90;;;;;;4999328;28;20594;-69
2021/09/12 05:55:16;;;;;;;24.95;10.45;;;16.30;99.90;;;;;;4998327;28;20038;-69
2021/09/12 05:57:41;;;;;;;22.65;11.25;;;16.30;99.90;;;;;;4998595;28;20078;-69
2021/09/12 06:00:09;;;;;;;19.52;10.07;;;16.30;99.90;;;;;;4998537;28;20598;-69
2021/09/12 06:02:36;;;;;;;20.23;10.30;;;16.30;99.90;;;;;;4997662;28;20068;-69
2021/09/12 06:05:03;;;;;;;24.23;10.68;;;16.30;99.90;;;;;;4996619;28;20073;-69
2021/09/12 06:07:32;;;;;;;26.50;11.63;;;16.40;99.90;;;;;;4996227;28;20038;-69
2021/09/12 06:09:57;;;;;;;26.33;11.23;;;16.40;99.90;;;;;;4998974;28;20125;-69
2021/09/12 06:12:24;;;;;;;24.27;11.43;;;16.40;99.90;;;;;;4999450;28;20450;-69
2021/09/12 06:14:50;;;;;;;19.15;10.73;;;16.40;99.90;;;;;;4997989;28;20046;-69
2021/09/12 06:17:16;;;;;;;19.58;11.38;;;16.40;99.90;;;;;;4998061;28;20045;-69
2021/09/12 06:19:41;;;;;;;23.92;11.43;;;16.40;99.90;;;;;;4995381;28;20041;-69
2021/09/12 06:22:07;;;;;;;20.60;10.85;;;16.50;99.90;;;;;;5000308;28;20053;-69
2021/09/12 06:24:33;;;;;;;19.98;11.02;;;16.50;99.90;;;;;;4997422;28;20054;-69
2021/09/12 06:26:59;;;;;;;19.15;9.57;;;16.70;99.90;;;;;;4996970;28;20046;-69
2021/09/12 06:29:24;;;;;;;15.73;9.57;;;16.80;99.90;;;;;;4998871;28;20037;-69
2021/09/12 06:31:50;;;;;;;16.60;9.15;;;17.10;99.90;;;;;;4997518;28;20563;-69
2021/09/12 06:34:16;;;;;;;16.60;9.57;;;17.30;99.90;;;;;;5000467;28;20049;-69
2021/09/12 06:36:42;;;;;;;19.33;10.30;;;17.50;99.90;;;;;;4996539;28;20096;-69
2021/09/12 06:39:08;;;;;;;21.63;9.95;;;17.60;99.90;;;;;;4986010;28;20047;-69
2021/09/12 06:41:33;;;;;;;22.92;11.23;;;17.70;99.90;;;;;;4996849;28;20034;-69
2021/09/12 06:43:59;;;;;;;15.43;9.27;;;17.70;99.90;;;;;;4997759;28;20125;-69
2021/09/12 06:46:24;;;;;;;17.48;8.75;;;17.70;99.90;;;;;;4998322;28;20043;-69
2021/09/12 06:48:50;;;;;;;19.00;9.82;;;17.70;99.90;;;;;;4997755;28;20038;-69
2021/09/12 06:51:15;;;;;;;23.10;10.60;;;17.70;99.90;;;;;;4999586;28;20038;-68
2021/09/12 06:53:41;;;;;;;15.30;8.40;;;17.80;99.90;;;;;;4995849;28;20034;-69
2021/09/12 06:56:07;;;;;;;19.88;8.52;;;17.80;99.90;;;;;;5001752;28;20046;-69
2021/09/12 06:58:32;;;;;;;20.55;10.70;;;17.90;99.90;;;;;;4998646;28;20132;-69
2021/09/12 07:00:58;;;;;;;18.63;9.88;;;18.10;99.90;;;;;;4997409;28;20049;-69
2021/09/12 07:03:25;;;;;;;16.50;9.85;;;18.20;99.90;;;;;;4999878;28;20042;-69
2021/09/12 07:05:50;;;;;;;23.95;10.40;;;18.30;99.90;;;;;;4986572;28;20054;-69
2021/09/12 07:08:16;;;;;;;17.45;10.32;;;18.30;99.90;;;;;;4999698;28;20108;-69
2021/09/12 07:10:42;;;;;;;21.58;11.43;;;18.30;99.90;;;;;;4998463;28;20038;-69
2021/09/12 07:13:07;;;;;;;18.98;10.80;;;18.30;99.90;;;;;;4998804;28;20551;-69
2021/09/12 07:15:33;;;;;;;21.73;10.93;;;18.20;99.90;;;;;;4997402;28;20084;-69
2021/09/12 07:17:59;;;;;;;18.08;11.07;;;18.10;99.90;;;;;;4996736;28;20860;-69
2021/09/12 07:20:25;;;;;;;19.35;11.25;;;18.10;99.90;;;;;;5002041;28;20517;-69
2021/09/12 07:22:50;;;;;;;26.42;12.43;;;18.00;99.90;;;;;;5003573;28;20122;-69
2021/09/12 07:25:16;;;;;;;30.85;12.48;;;18.00;99.90;;;;;;5002366;28;20058;-69
2021/09/12 07:27:42;;;;;;;20.33;12.32;;;17.90;99.90;;;;;;5000578;28;20065;-69
2021/09/12 07:30:09;;;;;;;31.73;13.80;;;17.90;99.90;;;;;;5001390;28;20042;-69
2021/09/12 07:32:35;;;;;;;28.55;13.25;;;17.90;99.90;;;;;;4999992;28;20116;-69
2021/09/12 07:35:00;;;;;;;25.73;13.95;;;17.80;99.90;;;;;;5000225;28;20492;-69
2021/09/12 07:37:26;;;;;;;22.45;13.52;;;17.80;99.90;;;;;;5000498;28;20592;-69
2021/09/12 07:39:52;;;;;;;22.35;14.55;;;17.80;99.90;;;;;;5001273;28;20073;-69
2021/09/12 07:42:17;;;;;;;23.25;13.88;;;17.80;99.90;;;;;;5002889;28;20046;-69
2021/09/12 07:44:43;;;;;;;24.30;13.88;;;17.80;99.90;;;;;;5000624;28;20454;-72
2021/09/12 07:47:09;;;;;;;23.17;14.55;;;17.80;99.90;;;;;;5000601;28;20050;-72
2021/09/12 07:49:34;;;;;;;26.65;13.52;;;17.60;99.90;;;;;;5002347;28;20060;-73
2021/09/12 07:52:00;;;;;;;26.67;13.88;;;17.80;99.90;;;;;;5002750;28;20373;-68
2021/09/12 07:54:25;;;;;;;29.10;14.70;;;17.80;99.90;;;;;;5002391;28;20046;-76
2021/09/12 07:56:51;;;;;;;24.55;14.32;;;17.80;99.90;;;;;;5004699;28;20409;-78
2021/09/12 07:59:16;;;;;;;25.30;14.82;;;17.80;99.90;;;;;;5001618;28;20038;-70
2021/09/12 08:01:42;;;;;;;26.88;14.18;;;17.90;99.90;;;;;;5001615;28;20053;-70
2021/09/12 08:04:08;;;;;;;17.75;14.40;;;17.90;99.90;;;;;;5005517;28;20041;-70
2021/09/12 08:06:33;;;;;;;26.23;14.93;;;18.00;99.90;;;;;;5005067;28;20429;-70
2021/09/12 08:08:59;;;;;;;30.60;18.27;;;18.00;99.90;;;;;;5003345;28;20042;-69
2021/09/12 08:11:24;;;;;;;24.50;16.25;;;18.00;99.90;;;;;;4990219;28;20037;-69
2021/09/12 08:13:50;;;;;;;30.23;17.70;;;18.10;99.90;;;;;;5003340;28;20623;-69
2021/09/12 08:16:15;;;;;;;23.00;16.88;;;18.20;99.90;;;;;;5000395;28;22945;-69
2021/09/12 08:18:41;;;;;;;28.75;16.38;;;18.20;99.90;;;;;;5001576;28;20061;-69
2021/09/12 08:21:06;;;;;;;28.65;17.35;;;18.30;99.90;;;;;;5001600;28;20062;-69
2021/09/12 08:23:32;;;;;;;28.92;17.80;;;18.30;99.90;;;;;;5000247;28;20057;-69
2021/09/12 08:25:58;;;;;;;27.02;18.10;;;18.30;99.90;;;;;;4998072;28;20145;-69
2021/09/12 08:28:24;;;;;;;24.58;16.77;;;18.30;99.90;;;;;;5005959;28;20037;-69
2021/09/12 08:30:50;;;;;;;25.83;17.10;;;18.40;99.90;;;;;;5006499;28;20498;-69
2021/09/12 08:33:16;;;;;;;28.33;19.40;;;18.40;99.90;;;;;;5005883;28;20041;-69
2021/09/12 08:35:43;;;;;;;26.90;19.88;;;18.50;99.90;;;;;;5006403;28;20173;-69
2021/09/12 08:38:11;;;;;;;29.90;17.67;;;18.40;99.90;;;;;;5006396;28;20050;-69
2021/09/12 08:40:37;;;;;;;26.13;17.45;;;18.40;99.90;;;;;;5002522;28;20041;-69
2021/09/12 08:43:03;;;;;;;26.88;19.42;;;18.50;99.90;;;;;;5007509;28;20095;-69
2021/09/12 08:45:29;;;;;;;24.98;17.73;;;18.40;99.90;;;;;;5008672;28;20427;-69
2021/09/12 08:47:55;;;;;;;33.90;19.25;;;18.40;99.90;;;;;;5003890;28;20030;-69
2021/09/12 08:50:21;;;;;;;34.08;20.55;;;18.40;99.90;;;;;;5005846;28;20092;-69
2021/09/12 08:52:47;;;;;;;34.42;18.50;;;18.40;99.90;;;;;;5006045;28;20088;-69
2021/09/12 08:55:13;;;;;;;30.70;19.90;;;18.40;99.90;;;;;;5006871;28;20042;-69
2021/09/12 08:57:52;;;;;;;34.25;20.75;;;18.30;99.90;;;;;;5005709;28;20141;-69
2021/09/12 09:00:22;;;;;;;35.30;21.98;;;18.30;99.90;;;;;;5006362;28;20049;-69
2021/09/12 09:02:49;;;;;;;35.67;21.60;;;18.30;99.90;;;;;;5004075;28;20875;-70
2021/09/12 09:05:27;;;;;;;37.40;21.23;;;18.20;99.90;;;;;;5002165;28;20049;-70
2021/09/12 09:08:03;;;;;;;39.80;21.70;;;18.20;99.90;;;;;;5004539;28;20053;-69
2021/09/12 09:10:37;;;;;;;40.72;23.35;;;18.30;99.90;;;;;;5008257;28;20119;-69
2021/09/12 09:13:03;;;;;;;36.97;22.63;;;18.20;99.90;;;;;;5006201;28;20045;-69
2021/09/12 09:15:29;;;;;;;36.53;21.70;;;18.20;99.90;;;;;;5004933;28;20049;-69
2021/09/12 09:17:56;;;;;;;39.17;21.98;;;18.20;99.90;;;;;;5005430;28;20065;-69
2021/09/12 09:20:33;;;;;;;40.88;23.55;;;18.20;99.90;;;;;;5004029;28;20034;-69
2021/09/12 09:23:04;;;;;;;41.47;22.95;;;18.20;99.90;;;;;;5008080;28;20049;-69
2021/09/12 09:25:30;;;;;;;40.30;23.55;;;18.10;99.90;;;;;;5006906;28;20050;-69
2021/09/12 09:28:02;;;;;;;42.08;24.85;;;18.10;99.90;;;;;;5005714;28;20132;-69
2021/09/12 09:30:32;;;;;;;39.55;25.10;;;18.20;99.90;;;;;;5005787;28;20496;-70
2021/09/12 09:33:19;;;;;;;38.30;23.77;;;18.20;99.90;;;;;;5004350;28;20037;-70
2021/09/12 09:35:52;;;;;;;38.97;23.73;;;18.30;99.90;;;;;;5005656;28;20046;-69
2021/09/12 09:38:22;;;;;;;48.28;23.77;;;18.30;99.90;;;;;;5003062;28;20053;-69
2021/09/12 09:41:02;;;;;;;44.22;22.90;;;18.40;99.90;;;;;;5004440;28;20046;-69
2021/09/12 09:43:43;;;;;;;39.47;23.83;;;18.30;99.90;;;;;;5002812;28;20038;-69
2021/09/12 09:46:31;;;;;;;41.90;25.73;;;18.30;99.90;;;;;;5007204;28;20042;-69
2021/09/12 09:49:16;;;;;;;44.15;24.58;;;18.30;99.90;;;;;;5005421;28;20034;-69
2021/09/12 09:51:41;;;;;;;39.83;24.37;;;18.30;99.90;;;;;;5003668;28;20100;-69
2021/09/12 09:54:08;;;;;;;34.85;23.77;;;18.30;99.90;;;;;;5003565;28;20488;-69
2021/09/12 09:56:34;;;;;;;37.38;23.58;;;18.30;99.90;;;;;;5006603;28;20471;-69
2021/09/12 09:59:00;;;;;;;40.00;24.75;;;18.30;99.90;;;;;;5005495;28;20046;-69
2021/09/12 10:01:26;;;;;;;40.35;24.23;;;18.40;99.90;;;;;;5006335;28;20041;-70
2021/09/12 10:03:52;;;;;;;37.20;24.38;;;18.50;99.90;;;;;;5007528;28;20051;-69
2021/09/12 10:06:17;;;;;;;40.20;23.17;;;18.60;99.90;;;;;;5001836;28;20489;-69
2021/09/12 10:08:44;;;;;;;41.28;24.33;;;18.70;99.90;;;;;;5005073;28;20064;-69
2021/09/12 10:11:10;;;;;;;35.28;24.83;;;18.80;99.90;;;;;;5004818;28;20515;-69
2021/09/12 10:13:37;;;;;;;40.75;24.00;;;19.00;99.90;;;;;;5003312;28;20565;-69
2021/09/12 10:16:06;;;;;;;34.75;22.33;;;19.10;99.90;;;;;;5005770;28;20077;-69
2021/09/12 10:18:32;;;;;;;36.47;25.10;;;19.20;99.90;;;;;;5002697;28;20737;-69
2021/09/12 10:21:23;;;;;;;38.42;22.15;;;19.20;99.90;;;;;;5003939;28;20085;-69
2021/09/12 10:24:08;;;;;;;40.08;20.63;;;19.30;99.90;;;;;;5004871;28;20048;-69
2021/09/12 10:26:38;;;;;;;28.67;20.43;;;19.30;99.90;;;;;;5002550;28;20096;-69
2021/09/12 10:29:05;;;;;;;29.38;19.45;;;19.30;99.90;;;;;;5003294;28;20045;-69
2021/09/12 10:31:34;;;;;;;29.48;20.08;;;19.40;99.90;;;;;;5003175;28;20376;-69
2021/09/12 10:34:13;;;;;;;32.33;20.73;;;19.40;99.90;;;;;;5002230;28;20038;-69
2021/09/12 10:36:43;;;;;;;30.23;20.77;;;19.50;99.90;;;;;;5006153;28;20037;-69
2021/09/12 10:39:24;;;;;;;26.17;19.70;;;19.50;99.90;;;;;;5001632;28;20477;-69
2021/09/12 10:42:11;;;;;;;28.90;21.02;;;19.70;99.90;;;;;;5005523;28;20046;-69
2021/09/12 10:44:38;;;;;;;34.47;22.45;;;19.90;99.90;;;;;;5005253;28;20395;-69
2021/09/12 10:47:08;;;;;;;27.88;20.67;;;20.00;99.90;;;;;;5003771;28;20442;-69
2021/09/12 10:49:34;;;;;;;31.48;21.10;;;20.20;99.90;;;;;;5004112;28;20045;-69
2021/09/12 10:51:59;;;;;;;29.13;21.02;;;20.30;99.90;;;;;;5002538;28;20079;-70
2021/09/12 10:54:25;;;;;;;30.08;21.90;;;20.70;99.90;;;;;;5008746;28;20037;-69
2021/09/12 10:57:05;;;;;;;36.05;22.33;;;20.80;99.90;;;;;;5007544;28;20142;-69
2021/09/12 10:59:31;;;;;;;32.63;22.05;;;21.00;99.90;;;;;;5008595;28;20145;-69
2021/09/12 11:01:57;;;;;;;30.55;20.30;;;21.00;99.90;;;;;;5008903;28;20124;-69
2021/09/12 11:04:29;;;;;;;32.03;20.00;;;21.00;99.90;;;;;;5009873;28;20085;-69
2021/09/12 11:07:05;;;;;;;24.73;18.80;;;21.00;99.90;;;;;;5008289;28;20038;-69
2021/09/12 11:09:32;;;;;;;31.20;19.88;;;21.00;99.90;;;;;;5007880;28;20073;-69
2021/09/12 11:12:00;;;;;;;29.17;18.40;;;21.10;99.90;;;;;;5006967;28;20100;-69
2021/09/12 11:14:27;;;;;;;32.08;20.83;;;21.00;99.90;;;;;;5006596;28;20085;-69
2021/09/12 11:16:53;;;;;;;29.42;19.20;;;21.00;99.90;;;;;;5006106;28;20505;-69
2021/09/12 11:19:19;;;;;;;26.98;18.88;;;21.00;99.90;;;;;;5007520;28;20046;-69
2021/09/12 11:21:46;;;;;;;29.83;20.30;;;21.10;99.90;;;;;;5008416;28;20042;-69
2021/09/12 11:24:19;;;;;;;30.20;18.90;;;21.10;99.90;;;;;;5008512;28;20108;-69
2021/09/12 11:26:56;;;;;;;25.15;18.35;;;21.10;99.90;;;;;;5010577;28;20038;-69
2021/09/12 11:29:25;;;;;;;29.83;19.35;;;21.20;99.90;;;;;;5004681;28;20045;-69
2021/09/12 11:31:53;;;;;;;27.58;18.52;;;21.20;99.90;;;;;;5008019;28;20053;-85
2021/09/12 11:34:21;;;;;;;32.58;20.50;;;21.30;99.90;;;;;;5009450;28;20120;-80
2021/09/12 11:37:02;;;;;;;34.13;19.13;;;21.30;99.90;;;;;;5009025;28;20081;-72
2021/09/12 11:39:30;;;;;;;29.20;19.40;;;21.40;99.90;;;;;;5008754;28;20038;-77
2021/09/12 11:41:58;;;;;;;25.50;18.25;;;21.40;99.90;;;;;;5009849;28;20049;-71
2021/09/12 11:44:36;;;;;;;24.65;19.48;;;21.50;99.90;;;;;;4984714;28;20073;-71
2021/09/12 11:47:06;;;;;;;29.63;20.55;;;21.50;99.90;;;;;;5004760;28;21693;-72
2021/09/12 11:49:32;;;;;;;30.40;19.83;;;21.40;99.90;;;;;;5004910;28;20093;-71
2021/09/12 11:51:57;;;;;;;32.10;22.17;;;21.20;99.90;;;;;;5001689;28;20113;-71
2021/09/12 11:54:27;;;;;;;28.83;19.42;;;21.10;99.90;;;;;;5005196;28;20038;-71
2021/09/12 11:57:17;;;;;;;31.88;21.58;;;21.00;99.90;;;;;;5020443;28;20575;-71
2021/09/12 11:59:48;;;;;;;24.65;14.90;;;20.80;99.90;;;;;;5006322;28;20374;-70
2021/09/12 12:02:16;;;;;;;14.20;9.00;;;20.60;99.90;;;;;;5009975;28;20044;-74
2021/09/12 12:04:44;;;;;;;12.07;6.90;;;20.40;99.90;;;;;;5006264;28;20061;-73
2021/09/12 12:07:10;;;;;;;8.95;4.88;;;20.20;99.90;;;;;;5006797;28;20046;-74
2021/09/12 12:09:40;;;;;;;7.13;3.22;;;20.10;99.90;;;;;;5004770;28;20057;-77
2021/09/12 12:12:16;;;;;;;5.65;3.08;;;19.90;99.90;;;;;;5003619;28;20046;-74
2021/09/12 12:14:49;;;;;;;5.15;2.53;;;19.80;99.90;;;;;;5005980;28;20116;-72
2021/09/12 12:17:16;;;;;;;4.07;2.40;;;19.60;99.90;;;;;;5007323;28;20415;-75
2021/09/12 12:19:43;;;;;;;4.82;1.90;;;19.60;99.90;;;;;;5007470;28;20041;-71
2021/09/12 12:22:09;;;;;;;7.38;1.90;;;19.50;99.90;;;;;;5005736;28;20089;-71
2021/09/12 12:24:37;;;;;;;3.28;1.90;;;19.50;99.90;;;;;;5007753;28;20404;-71
2021/09/12 12:27:08;;;;;;;2.97;1.60;;;19.40;99.90;;;;;;5007325;28;20049;-71